createdAt,value
2018-07-02T00:03:39.643Z,22.30
2018-07-02T00:08:42.848Z,22.40
2018-07-02T00:13:46.076Z,22.30
2018-07-02T00:18:49.299Z,22.30
2018-07-02T00:23:52.784Z,22.20
2018-07-02T00:28:55.972Z,22.20
2018-07-02T00:33:59.354Z,22.10
2018-07-02T00:39:02.562Z,22.10
2018-07-02T00:44:05.864Z,22.00
2018-07-02T00:49:09.103Z,21.80
2018-07-02T00:54:12.308Z,22.10
2018-07-02T00:59:15.533Z,21.80
2018-07-02T01:04:18.752Z,21.90
2018-07-02T01:09:22.004Z,21.90
2018-07-02T01:14:25.271Z,22.00
2018-07-02T01:19:28.534Z,21.60
2018-07-02T01:24:31.827Z,21.50
2018-07-02T01:29:35.079Z,21.60
2018-07-02T01:34:38.507Z,21.40
2018-07-02T01:39:41.752Z,21.50
2018-07-02T01:44:45.083Z,21.50
2018-07-02T01:49:48.351Z,21.50
2018-07-02T01:54:51.635Z,21.60
2018-07-02T01:59:54.899Z,21.60
2018-07-02T02:04:58.162Z,21.40
2018-07-02T02:10:01.434Z,21.40
2018-07-02T02:15:05.267Z,21.30
2018-07-02T02:20:08.548Z,21.50
2018-07-02T02:25:11.810Z,21.40
2018-07-02T02:30:15.039Z,21.50
2018-07-02T02:35:18.271Z,21.30
2018-07-02T02:40:21.524Z,21.10
2018-07-02T02:45:24.804Z,21.00
2018-07-02T02:50:28.115Z,21.20
2018-07-02T02:55:31.354Z,21.00
2018-07-02T03:00:34.602Z,21.00
2018-07-02T03:05:37.895Z,21.20
2018-07-02T03:10:41.152Z,21.20
2018-07-02T03:15:44.402Z,20.90
2018-07-02T03:20:47.624Z,20.70
2018-07-02T03:25:50.878Z,21.10
2018-07-02T03:30:54.115Z,20.80
2018-07-02T03:35:57.335Z,20.90
2018-07-02T03:41:00.603Z,20.80
2018-07-02T03:46:03.871Z,20.70
2018-07-02T03:51:07.163Z,20.70
2018-07-02T03:56:10.554Z,20.50
2018-07-02T04:01:14.166Z,20.60
2018-07-02T04:06:17.596Z,20.60
2018-07-02T04:11:20.872Z,20.60
2018-07-02T04:16:24.147Z,20.80
2018-07-02T04:21:27.407Z,20.70
2018-07-02T04:26:30.644Z,20.40
2018-07-02T04:31:33.922Z,20.70
2018-07-02T04:36:37.283Z,20.30
2018-07-02T04:41:40.511Z,20.60
2018-07-02T04:46:43.760Z,20.80
2018-07-02T04:51:47.035Z,20.80
2018-07-02T04:56:50.315Z,20.60
2018-07-02T05:01:53.572Z,20.60
2018-07-02T05:06:56.814Z,20.80
2018-07-02T05:12:00.052Z,20.40
2018-07-02T05:17:03.330Z,20.40
2018-07-02T05:22:06.628Z,20.70
2018-07-02T05:27:09.879Z,20.60
2018-07-02T05:32:13.997Z,20.70
2018-07-02T05:37:17.256Z,20.70
2018-07-02T05:42:20.483Z,20.50
2018-07-02T05:47:23.763Z,20.50
2018-07-02T05:52:27.035Z,20.90
2018-07-02T05:57:30.308Z,20.90
2018-07-02T06:02:33.616Z,21.20
2018-07-02T06:07:36.928Z,21.00
2018-07-02T06:12:40.173Z,20.90
2018-07-02T06:17:43.448Z,21.30
2018-07-02T06:22:46.695Z,21.00
2018-07-02T06:27:50.083Z,21.20
2018-07-02T06:32:53.639Z,21.30
2018-07-02T06:42:59.884Z,21.30
2018-07-02T06:48:03.163Z,21.70
2018-07-02T06:53:06.620Z,21.60
2018-07-02T06:58:09.858Z,21.70
2018-07-02T07:03:13.108Z,21.70
2018-07-02T07:08:16.355Z,21.70
2018-07-02T07:13:19.599Z,21.80
2018-07-02T07:18:22.851Z,22.10
2018-07-02T07:23:26.119Z,22.40
2018-07-02T07:28:29.343Z,22.10
2018-07-02T07:33:32.698Z,22.10
2018-07-02T07:38:35.932Z,22.30
2018-07-02T07:43:39.172Z,22.30
2018-07-02T07:48:42.448Z,22.30
2018-07-02T07:53:45.708Z,22.40
2018-07-02T07:58:48.957Z,22.60
2018-07-02T08:03:52.196Z,22.50
2018-07-02T08:08:55.496Z,22.80
2018-07-02T08:13:58.747Z,22.40
2018-07-02T08:19:02.066Z,22.70
2018-07-02T08:24:05.291Z,22.70
2018-07-02T08:29:08.540Z,22.40
2018-07-02T08:34:11.767Z,22.80
2018-07-02T08:39:15.020Z,22.70
2018-07-02T08:44:18.251Z,22.80
2018-07-02T08:49:21.488Z,22.90
2018-07-02T08:54:25.277Z,23.00
2018-07-02T08:59:28.521Z,23.00
2018-07-02T09:04:31.768Z,23.10
2018-07-02T09:09:35.012Z,23.20
2018-07-02T09:14:38.295Z,23.40
2018-07-02T09:19:41.532Z,22.80
2018-07-02T09:24:44.777Z,23.20
2018-07-02T09:29:48.002Z,23.30
2018-07-02T09:34:51.239Z,23.30
2018-07-02T09:39:54.468Z,23.50
2018-07-02T09:44:57.694Z,23.60
2018-07-02T09:50:00.935Z,23.60
2018-07-02T09:55:04.196Z,23.80
2018-07-02T10:00:07.487Z,23.90
2018-07-02T10:05:10.743Z,24.00
2018-07-02T10:10:14.025Z,23.90
2018-07-02T10:15:17.239Z,23.90
2018-07-02T10:20:20.513Z,24.00
2018-07-02T10:25:23.936Z,24.10
2018-07-02T10:30:27.179Z,24.10
2018-07-02T10:35:30.400Z,24.10
2018-07-02T10:40:33.646Z,24.20
2018-07-02T10:45:36.930Z,24.20
2018-07-02T10:50:40.187Z,24.20
2018-07-02T10:55:43.490Z,24.20
2018-07-02T11:00:46.704Z,24.40
2018-07-02T11:05:49.980Z,24.40
2018-07-02T11:10:53.220Z,24.40
2018-07-02T11:15:56.495Z,24.60
2018-07-02T11:20:59.768Z,24.70
2018-07-02T11:26:03.015Z,24.80
2018-07-02T11:31:07.347Z,24.80
2018-07-02T11:36:10.606Z,24.90
2018-07-02T11:41:14.144Z,24.90
2018-07-02T11:46:17.415Z,25.10
2018-07-02T11:51:20.684Z,25.10
2018-07-02T11:56:23.939Z,25.10
2018-07-02T12:01:27.728Z,25.20
2018-07-02T12:06:31.411Z,25.20
2018-07-02T12:11:34.679Z,25.20
2018-07-02T12:16:37.972Z,25.10
2018-07-02T12:21:41.179Z,25.20
2018-07-02T12:26:44.408Z,25.20
2018-07-02T12:31:47.704Z,25.30
2018-07-02T12:36:50.992Z,25.40
2018-07-02T12:41:54.255Z,25.40
2018-07-02T12:46:57.645Z,25.50
2018-07-02T12:52:00.896Z,25.50
2018-07-02T12:57:04.139Z,25.60
2018-07-02T13:02:07.387Z,25.60
2018-07-02T13:07:10.616Z,25.60
2018-07-02T13:12:13.847Z,25.80
2018-07-02T13:17:17.135Z,25.80
2018-07-02T13:22:20.399Z,25.80
2018-07-02T13:27:23.660Z,25.70
2018-07-02T13:32:26.964Z,25.70
2018-07-02T13:37:30.216Z,25.80
2018-07-02T13:42:33.492Z,25.80
2018-07-02T13:47:36.754Z,25.90
2018-07-02T13:52:40.224Z,25.80
2018-07-02T13:57:43.488Z,25.70
2018-07-02T14:02:46.773Z,25.70
2018-07-02T14:07:50.084Z,25.90
2018-07-02T14:12:53.344Z,26.00
2018-07-02T14:17:56.599Z,25.90
2018-07-02T14:22:59.855Z,26.00
2018-07-02T14:28:03.103Z,26.10
2018-07-02T14:33:06.361Z,26.10
2018-07-02T14:38:09.587Z,26.10
2018-07-02T14:43:12.820Z,26.20
2018-07-02T14:48:16.063Z,26.20
2018-07-02T14:58:22.679Z,26.20
2018-07-02T15:03:25.899Z,26.30
2018-07-02T15:08:29.147Z,26.30
2018-07-02T15:13:32.379Z,26.40
2018-07-02T15:18:35.655Z,26.30
2018-07-02T15:23:38.915Z,26.40
2018-07-02T15:28:42.171Z,26.30
2018-07-02T15:33:45.549Z,26.40
2018-07-02T15:38:48.863Z,26.50
2018-07-02T15:43:52.128Z,26.50
2018-07-02T15:48:55.402Z,26.30
2018-07-02T15:53:58.681Z,26.40
2018-07-02T15:59:01.932Z,26.40
2018-07-02T16:04:05.171Z,26.40
2018-07-02T16:09:10.386Z,26.30
2018-07-02T16:14:13.659Z,26.20
2018-07-02T16:19:16.932Z,26.20
2018-07-02T16:24:20.187Z,26.20
2018-07-02T16:29:23.517Z,26.30
2018-07-02T16:34:26.738Z,26.40
2018-07-02T16:39:29.971Z,26.50
2018-07-02T16:44:33.211Z,26.50
2018-07-02T16:49:36.459Z,26.50
2018-07-02T16:54:39.737Z,26.40
2018-07-02T16:59:42.986Z,26.40
2018-07-02T17:04:46.237Z,26.40
2018-07-02T17:09:49.458Z,26.50
2018-07-02T17:14:52.686Z,26.50
2018-07-02T17:19:55.947Z,26.50
2018-07-02T17:24:59.265Z,26.60
2018-07-02T17:30:02.520Z,26.50
2018-07-02T17:35:05.919Z,26.60
2018-07-02T17:40:09.220Z,26.60
2018-07-02T17:45:12.488Z,26.60
2018-07-02T17:50:15.740Z,26.60
2018-07-02T17:55:18.987Z,26.60
2018-07-02T18:00:22.300Z,26.60
2018-07-02T18:05:25.535Z,26.60
2018-07-02T18:10:28.823Z,26.70
2018-07-02T18:15:32.114Z,26.70
2018-07-02T18:20:35.384Z,26.70
2018-07-02T18:25:38.641Z,26.70
2018-07-02T18:30:41.911Z,26.70
2018-07-02T18:35:45.153Z,26.70
2018-07-02T18:40:48.411Z,26.70
2018-07-02T18:45:58.126Z,26.60
2018-07-02T18:51:01.444Z,26.60
2018-07-02T18:56:04.738Z,26.60
2018-07-02T19:01:08.008Z,26.60
2018-07-02T19:06:11.308Z,26.60
2018-07-02T19:11:14.579Z,26.50
2018-07-02T19:16:17.921Z,26.50
2018-07-02T19:21:21.135Z,26.50
2018-07-02T19:26:24.394Z,26.50
2018-07-02T19:31:27.631Z,26.40
2018-07-02T19:36:30.924Z,26.40
2018-07-02T19:41:34.171Z,26.40
2018-07-02T19:46:37.427Z,26.30
2018-07-02T19:51:40.756Z,26.20
2018-07-02T19:56:44.055Z,26.20
2018-07-02T20:01:47.306Z,26.10
2018-07-02T20:06:50.662Z,26.00
2018-07-02T20:11:53.856Z,25.90
2018-07-02T20:16:57.119Z,25.80
2018-07-02T20:22:00.367Z,25.70
2018-07-02T20:27:03.652Z,25.60
2018-07-02T20:37:09.935Z,25.40
2018-07-02T20:42:13.199Z,25.40
2018-07-02T20:47:16.604Z,25.20
2018-07-02T20:52:19.855Z,25.20
2018-07-02T20:57:23.100Z,25.10
2018-07-02T21:02:26.460Z,25.00
2018-07-02T21:07:29.737Z,24.90
2018-07-02T21:12:32.971Z,24.80
2018-07-02T21:17:36.235Z,24.80
2018-07-02T21:22:39.499Z,24.60
2018-07-02T21:27:42.785Z,24.60
2018-07-02T21:32:46.048Z,24.50
2018-07-02T21:37:49.424Z,24.40
2018-07-02T21:42:52.692Z,24.30
2018-07-02T21:47:55.944Z,24.20
2018-07-02T21:58:02.203Z,24.10
2018-07-02T22:03:07.623Z,24.00
2018-07-02T22:08:11.530Z,24.00
2018-07-02T22:13:14.788Z,23.90
2018-07-02T22:18:18.070Z,23.80
2018-07-02T22:23:21.291Z,23.80
2018-07-02T22:28:24.546Z,23.70
2018-07-02T22:33:27.800Z,23.70
2018-07-02T22:43:34.078Z,23.60
2018-07-02T22:48:37.317Z,23.50
2018-07-02T22:53:40.554Z,23.40
2018-07-02T22:58:43.800Z,23.40
2018-07-02T23:03:47.156Z,23.30
2018-07-02T23:08:50.402Z,23.30
2018-07-02T23:13:53.704Z,23.20
2018-07-02T23:18:56.971Z,23.20
2018-07-02T23:24:00.234Z,23.10
2018-07-02T23:29:03.566Z,23.10
2018-07-02T23:34:06.799Z,23.10
2018-07-02T23:39:11.889Z,23.00
2018-07-02T23:44:15.163Z,22.70
2018-07-02T23:49:18.411Z,22.50
2018-07-02T23:54:21.685Z,22.90
2018-07-02T23:59:24.964Z,22.70
